Flight Track Log - Related Links

Times and Time Zones

All times are in EDT time to prevent confusion due to time zone crossing. See the AAL2384 flight status page for this flight to view local times or setup timezone preferences in your user account.


Time Position Orientation Groundspeed Altitude Reporting Facility
EDT Latitude Longitude Course Direction KTS MPH feet Rate Location/Type
Fri 10:29:19 PM 32.8333 -97.0500 331° Northwest 193 222 3,200  Level Dallas / Fort Worth TRACON
Fri 10:30:00 PM 32.7626 -96.8369 77° East  Level FlightAware Approximate
Fri 10:31:00 PM 32.8745 -96.8000 North  Level FlightAware Approximate
Fri 10:31:07 PM 32.7642 -97.1342 226° Southwest 208 239 7,300  Level Fort Worth Center
Fri 10:32:00 PM 32.9991 -96.8094 333° Northwest  Level FlightAware Approximate
Fri 10:32:07 PM 32.7728 -97.2231 277° West 239 275 9,300  Level Fort Worth Center
Fri 10:33:00 PM 33.1110 -96.8795 331° Northwest  Level FlightAware Approximate
Fri 10:33:07 PM 32.8333 -97.2725 326° Northwest 226 260 11,000  Level Fort Worth Center
Fri 10:34:00 PM 33.2215 -96.9531 331° Northwest  Level FlightAware Approximate
Fri 10:34:07 PM 32.9336 -97.2722 360° North 286 329 12,800  Level Fort Worth Center
Fri 10:35:07 PM 33.0358 -97.2622 North 343 395 15,200 2,400 Climbing Fort Worth Center
Fri 10:36:07 PM 33.1464 -97.2200 18° North 400 460 17,600 2,050 Climbing Fort Worth Center
Fri 10:37:07 PM 33.2589 -97.1775 18° North 415 478 19,300 1,800 Climbing Fort Worth Center
Fri 10:38:07 PM 33.3675 -97.1397 16° North 428 493 21,200 1,900 Climbing Fort Worth Center
Fri 10:39:07 PM 33.4989 -97.0897 18° North 441 507 23,100 1,900 Climbing Fort Worth Center
Fri 10:40:07 PM 33.6197 -97.0294 23° Northeast 452 520 25,000 1,700 Climbing Fort Worth Center
Fri 10:41:07 PM 33.7364 -96.9614 26° Northeast 460 529 26,500 1,500 Climbing Fort Worth Center
Fri 10:42:07 PM 33.8592 -96.8956 24° Northeast 460 529 28,000 1,250 Climbing Fort Worth Center
Fri 10:43:07 PM 33.9822 -96.8297 24° Northeast 465 535 29,000 750 Climbing Fort Worth Center
Fri 10:44:07 PM 34.0903 -96.7689 25° Northeast 465 535 29,500 900 Climbing Fort Worth Center
Fri 10:45:07 PM 34.2047 -96.7053 25° Northeast 458 527 30,800 1,250 Climbing Fort Worth Center
Fri 10:46:07 PM 34.3211 -96.6264 29° Northeast 464 534 32,000 1,100 Climbing Fort Worth Center
Fri 10:47:07 PM 34.4478 -96.5269 33° Northeast 485 558 33,000 1,300 Climbing Fort Worth Center
Fri 10:48:07 PM 34.5578 -96.4428 32° Northeast 491 565 34,600 1,000 Climbing Fort Worth Center
Fri 10:49:07 PM 34.6633 -96.3531 35° Northeast 470 541 35,000 200 Climbing Fort Worth Center
Fri 10:50:07 PM 34.7669 -96.2633 35° Northeast 464 534 35,000  Level Fort Worth Center
Fri 10:51:07 PM 34.8725 -96.1733 35° Northeast 459 528 35,000  Level Fort Worth Center
Fri 10:52:07 PM 34.9819 -96.0781 35° Northeast 465 535 35,000  Level Fort Worth Center
Fri 10:53:07 PM 35.0875 -95.9875 35° Northeast 465 535 35,000  Level Fort Worth Center
Fri 10:54:07 PM 35.1969 -95.8944 35° Northeast 465 535 35,000  Level Fort Worth Center
Fri 10:55:07 PM 35.3042 -95.8083 33° Northeast 465 535 35,000  Level Fort Worth Center
Fri 10:56:07 PM 35.4114 -95.7147 35° Northeast 465 535 35,000  Level Fort Worth Center
Fri 10:57:07 PM 35.5167 -95.6233 35° Northeast 465 535 35,000  Level Fort Worth Center
Fri 10:58:07 PM 35.6214 -95.5292 36° Northeast 460 529 35,000  Level Fort Worth Center
Fri 10:58:45 PM 35.6850 -95.4711 37° Northeast 467 537 35,000  Level Kansas City Center
Fri 10:59:46 PM 35.7908 -95.3772 36° Northeast 468 539 35,000  Level Kansas City Center
Fri 11:00:48 PM 35.8967 -95.2842 35° Northeast 469 540 35,000  Level Kansas City Center
Fri 11:01:49 PM 36.0028 -95.1903 36° Northeast 470 541 35,000  Level Kansas City Center
Fri 11:02:49 PM 36.1083 -95.0953 36° Northeast 471 542 35,000  Level Kansas City Center
Fri 11:03:48 PM 36.2147 -95.0017 35° Northeast 473 544 35,000  Level Kansas City Center
Fri 11:04:49 PM 36.3208 -94.9064 36° Northeast 474 545 35,000  Level Kansas City Center
Fri 11:05:52 PM 36.4275 -94.8108 36° Northeast 474 545 35,000  Level Kansas City Center
Fri 11:06:53 PM 36.5364 -94.7131 36° Northeast 481 554 35,000  Level Kansas City Center
Fri 11:07:53 PM 36.6669 -94.5953 36° Northeast 483 556 35,000  Level Kansas City Center
Fri 11:08:55 PM 36.7769 -94.4967 36° Northeast 486 559 35,000  Level Kansas City Center
Fri 11:09:55 PM 36.8842 -94.3964 37° Northeast 484 557 35,000  Level Kansas City Center
Fri 11:10:54 PM 36.9897 -94.2925 38° Northeast 483 556 35,000  Level Kansas City Center
Fri 11:11:57 PM 37.0944 -94.1875 39° Northeast 482 555 35,000  Level Kansas City Center
Fri 11:12:56 PM 37.2003 -94.0839 38° Northeast 481 554 35,000  Level Kansas City Center
Fri 11:13:57 PM 37.3067 -93.9811 38° Northeast 480 552 35,000  Level Kansas City Center
Fri 11:14:59 PM 37.4136 -93.8753 38° Northeast 485 558 35,000  Level Kansas City Center
Fri 11:15:59 PM 37.5219 -93.7692 38° Northeast 489 563 35,000  Level Kansas City Center
Fri 11:17:01 PM 37.6275 -93.6628 39° Northeast 486 559 35,000  Level Kansas City Center
Fri 11:18:02 PM 37.7325 -93.5556 39° Northeast 483 556 35,000  Level Kansas City Center
Fri 11:19:03 PM 37.8392 -93.4483 38° Northeast 484 557 35,000  Level Kansas City Center
Fri 11:20:03 PM 37.9461 -93.3417 38° Northeast 486 559 35,000  Level Kansas City Center
Fri 11:21:05 PM 38.0536 -93.2314 39° Northeast 490 564 35,000  Level Kansas City Center
Fri 11:22:06 PM 38.1614 -93.1225 38° Northeast 491 565 35,000  Level Kansas City Center
Fri 11:23:05 PM 38.2692 -93.0117 39° Northeast 492 566 35,000  Level Kansas City Center
Fri 11:24:05 PM 38.3747 -92.9039 39° Northeast 484 557 35,000  Level Kansas City Center
Fri 11:25:08 PM 38.4792 -92.7950 39° Northeast 480 552 35,000 -387 Level Kansas City Center
Fri 11:26:09 PM 38.5853 -92.6844 39° Northeast 482 555 34,200 -885 Descending Kansas City Center
Fri 11:27:10 PM 38.6942 -92.5719 39° Northeast 494 568 33,200 -590 Descending Kansas City Center
Fri 11:28:11 PM 38.8008 -92.4581 40° Northeast 496 571 33,000 -98 Descending Kansas City Center
Fri 11:29:12 PM 38.9067 -92.3456 40° Northeast 492 566 33,000  Level Kansas City Center
Fri 11:30:13 PM 39.0150 -92.2336 39° Northeast 495 570 33,000 -295 Level Kansas City Center
Fri 11:31:14 PM 39.1200 -92.1175 41° Northeast 495 570 32,400 -793 Descending Kansas City Center
Fri 11:32:14 PM 39.2031 -91.9719 54° Northeast 498 573 31,400 -689 Descending Kansas City Center
Fri 11:33:16 PM 39.2933 -91.8144 53° Northeast 504 580 31,000 -197 Descending Kansas City Center
Fri 11:34:16 PM 39.3842 -91.6572 53° Northeast 509 586 31,000  Level Kansas City Center
Fri 11:35:27 PM 39.4825 -91.4828 54° Northeast 503 579 31,000  Level Kansas City Center
Fri 11:36:28 PM 39.5547 -91.3558 54° Northeast 498 573 31,000  Level Kansas City Center
Fri 11:37:28 PM 39.6428 -91.1992 54° Northeast 488 562 31,000  Level Kansas City Center
Fri 11:38:29 PM 39.7281 -91.0642 51° Northeast 485 558 31,000  Level Kansas City Center
Fri 11:39:30 PM 39.8333 -90.9553 38° Northeast 477 549 31,000  Level Kansas City Center
Fri 11:40:31 PM 39.9394 -90.8494 37° Northeast 480 552 31,000  Level Kansas City Center
Fri 11:41:45 PM 40.0628 -90.7214 38° Northeast 474 545 31,000  Level Kansas City Center
Fri 11:42:47 PM 40.1664 -90.6158 38° Northeast 473 544 31,000  Level Kansas City Center
Fri 11:43:06 PM 40.2083 -90.5736 38° Northeast 473 544 31,000  Level Chicago Center
Fri 11:44:07 PM 40.3119 -90.4667 38° Northeast 472 543 31,000 -98 Level Chicago Center
Fri 11:45:08 PM 40.4156 -90.3600 38° Northeast 473 544 30,800 -793 Descending Chicago Center
Fri 11:46:08 PM 40.5289 -90.2428 38° Northeast 472 543 29,400 -1,339 Descending Chicago Center
Fri 11:47:09 PM 40.6336 -90.1358 38° Northeast 478 550 28,100 -1,279 Descending Chicago Center
Fri 11:48:10 PM 40.7364 -90.0258 39° Northeast 478 550 26,800 -1,475 Descending Chicago Center
Fri 11:49:11 PM 40.8219 -89.8886 50° Northeast 485 558 25,100 -1,686 Descending Chicago Center
Fri 11:50:11 PM 40.8947 -89.7567 54° Northeast 450 518 23,400 -1,884 Descending Chicago Center
Fri 11:51:12 PM 40.9711 -89.6361 50° Northeast 432 497 21,300 -1,967 Descending Chicago Center
Fri 11:52:13 PM 41.0439 -89.5136 52° Northeast 417 480 19,400 -1,721 Descending Chicago Center
Fri 11:53:14 PM 41.1125 -89.3989 52° Northeast 400 460 17,800 -1,339 Descending Chicago Center
Fri 11:54:14 PM 41.1778 -89.2858 52° Northeast 389 448 16,700 -1,240 Descending Chicago Center
Fri 11:55:15 PM 41.2403 -89.1786 52° Northeast 382 440 15,300 -1,377 Descending Chicago Center
Fri 11:56:16 PM 41.3022 -89.0706 53° Northeast 368 423 13,900 -1,388 Descending Chicago Center
Fri 11:57:16 PM 41.3642 -88.9617 53° Northeast 367 422 12,500 -1,339 Descending Chicago Center
Fri 11:58:17 PM 41.4231 -88.8597 52° Northeast 349 402 11,200 -738 Descending Chicago Center
Fri 11:59:18 PM 41.4819 -88.7617 51° Northeast 339 390 11,000 -97 Descending Chicago Center
Sat 12:00:21 AM 41.5414 -88.6336 58° Northeast 338 389 11,000  Level Chicago Center
Sat 12:01:21 AM 41.5861 -88.5208 62° Northeast 341 392 11,000  Level Chicago Center
Sat 12:02:22 AM 41.6383 -88.4147 57° Northeast 342 394 11,000  Level Chicago Center
Sat 12:03:23 AM 41.6978 -88.3144 52° Northeast 341 392 11,000 -149 Level Chicago Center
Sat 12:04:23 AM 41.7564 -88.2161 51° Northeast 337 388 10,700 -694 Descending Chicago Center
Sat 12:05:24 AM 41.8044 -88.1314 53° Northeast 290 334 9,600 -1,587 Descending Chicago Center
Sat 12:06:24 AM 41.8514 -88.0492 53° Northeast 277 319 7,500 -1,289 Descending Chicago Center
Sat 12:07:25 AM 41.9131 -87.9861 37° Northeast 291 335 7,000 -385 Descending Chicago Center
Sat 12:07:42 AM 41.9333 -88.0000 333° Northwest 291 335 7,000  Level Chicago TRACON
Sat 12:08:42 AM 42.0000 -88.0500 331° Northwest 245 282 7,000 -579 Level Chicago TRACON
Sat 12:09:36 AM 42.0500 -88.1000 323° Northwest 197 227 5,900 -1,368 Descending Chicago TRACON
Sat 12:10:36 AM 42.0833 -88.1333 323° Northwest 197 227 4,400 -1,027 Descending Chicago TRACON
Sat 12:11:27 AM 42.1244 -88.1408 352° North 214 246 4,000 -482 Descending Chicago Center
Sat 12:12:28 AM 42.1414 -88.0808 69° East 196 226 3,500 -446 Descending Chicago Center
Sat 12:13:28 AM 42.1100 -88.0364 134° Southeast 175 201 3,100 -480 Descending Chicago Center
Sat 12:13:43 AM 42.1000 -88.0167 124° Southeast 164 189 2,900 -720 Descending Chicago TRACON
Sat 12:14:43 AM 42.0667 -87.9833 143° Southeast 154 177 2,200 -700 Descending Chicago TRACON

Login

Don't have an account? Register now (free) for customized features, flight alerts, and more!